createdAt,value
2018-01-15T00:00:52.376Z,1.60
2018-01-15T00:01:53.081Z,1.66
2018-01-15T00:02:53.785Z,1.56
2018-01-15T00:03:54.488Z,1.63
2018-01-15T00:04:55.192Z,1.68
2018-01-15T00:05:55.895Z,1.59
2018-01-15T00:06:56.614Z,1.63
2018-01-15T00:07:57.318Z,1.68
2018-01-15T00:08:58.024Z,1.71
2018-01-15T00:09:58.726Z,1.71
2018-01-15T00:10:59.430Z,1.70
2018-01-15T00:12:00.133Z,1.59
2018-01-15T00:13:00.838Z,1.60
2018-01-15T00:14:01.552Z,1.60
2018-01-15T00:15:02.255Z,1.63
2018-01-15T00:16:02.958Z,1.66
2018-01-15T00:17:03.662Z,1.60
2018-01-15T00:18:04.366Z,1.66
2018-01-15T00:19:05.085Z,1.63
2018-01-15T00:20:05.784Z,1.58
2018-01-15T00:21:06.487Z,1.60
2018-01-15T00:22:07.192Z,1.58
2018-01-15T00:23:07.894Z,1.63
2018-01-15T00:24:08.597Z,1.67
2018-01-15T00:25:09.298Z,1.55
2018-01-15T00:26:10.005Z,1.56
2018-01-15T00:27:10.705Z,1.66
2018-01-15T00:28:11.409Z,1.56
2018-01-15T00:29:12.113Z,1.55
2018-01-15T00:30:12.815Z,1.62
2018-01-15T00:31:13.518Z,1.52
2018-01-15T00:32:14.220Z,1.67
2018-01-15T00:33:14.923Z,1.53
2018-01-15T00:34:15.626Z,1.63
2018-01-15T00:35:16.329Z,1.60
2018-01-15T00:36:17.032Z,1.58
2018-01-15T00:37:17.735Z,1.60
2018-01-15T00:38:18.451Z,1.58
2018-01-15T00:39:19.155Z,1.58
2018-01-15T00:40:19.858Z,1.56
2018-01-15T00:41:20.562Z,1.56
2018-01-15T00:42:21.269Z,1.59
2018-01-15T00:43:21.970Z,1.60
2018-01-15T00:44:22.672Z,1.59
2018-01-15T00:45:23.626Z,1.67
2018-01-15T00:46:24.333Z,1.53
2018-01-15T00:47:25.034Z,1.55
2018-01-15T00:48:25.750Z,1.50
2018-01-15T00:49:26.452Z,1.45
2018-01-15T00:50:27.406Z,1.58
2018-01-15T00:51:28.109Z,1.50
2018-01-15T00:52:28.812Z,1.62
2018-01-15T00:53:29.514Z,1.56
2018-01-15T00:54:30.230Z,1.58
2018-01-15T00:55:30.934Z,1.63
2018-01-15T00:56:31.638Z,1.63
2018-01-15T00:57:32.341Z,1.63
2018-01-15T00:58:33.046Z,1.59
2018-01-15T00:59:33.764Z,1.63
2018-01-15T01:00:34.468Z,1.58
2018-01-15T01:01:35.173Z,1.53
2018-01-15T01:02:35.875Z,1.62
2018-01-15T01:03:36.580Z,1.63
2018-01-15T01:04:37.283Z,1.55
2018-01-15T01:05:37.988Z,1.68
2018-01-15T01:06:38.691Z,1.68
2018-01-15T01:07:39.394Z,1.67
2018-01-15T01:08:40.111Z,1.73
2018-01-15T01:09:40.814Z,1.73
2018-01-15T01:10:41.519Z,1.74
2018-01-15T01:11:42.221Z,1.70
2018-01-15T01:12:42.925Z,1.78
2018-01-15T01:13:43.628Z,1.74
2018-01-15T01:14:44.333Z,1.78
2018-01-15T01:15:45.036Z,1.60
2018-01-15T01:16:45.744Z,1.71
2018-01-15T01:17:46.442Z,1.74
2018-01-15T01:18:47.165Z,1.67
2018-01-15T01:19:47.878Z,1.66
2018-01-15T01:20:48.593Z,1.70
2018-01-15T01:21:49.311Z,1.70
2018-01-15T01:22:50.016Z,1.71
2018-01-15T01:23:50.733Z,1.73
2018-01-15T01:24:51.447Z,1.63
2018-01-15T01:25:52.150Z,1.66
2018-01-15T01:26:52.852Z,1.67
2018-01-15T01:27:53.570Z,1.77
2018-01-15T01:28:54.286Z,1.55
2018-01-15T01:29:54.988Z,1.73
2018-01-15T01:30:55.691Z,1.60
2018-01-15T01:31:56.395Z,1.68
2018-01-15T01:32:57.098Z,1.62
2018-01-15T01:33:57.802Z,1.71
2018-01-15T01:34:58.517Z,1.68
2018-01-15T01:35:59.220Z,1.68
2018-01-15T01:36:59.926Z,1.55
2018-01-15T01:38:00.646Z,1.56
2018-01-15T01:39:01.352Z,1.58
2018-01-15T01:40:02.069Z,1.53
2018-01-15T01:41:02.773Z,1.62
2018-01-15T01:42:03.477Z,1.66
2018-01-15T01:43:04.202Z,1.70
2018-01-15T01:44:04.915Z,1.67
2018-01-15T01:45:05.620Z,1.62
2018-01-15T01:46:06.322Z,1.68
2018-01-15T01:47:07.026Z,1.68
2018-01-15T01:48:07.730Z,1.60
2018-01-15T01:49:08.433Z,1.62
2018-01-15T01:50:09.138Z,1.73
2018-01-15T01:51:09.846Z,1.70
2018-01-15T01:52:10.549Z,1.66
2018-01-15T01:53:11.253Z,1.77
2018-01-15T01:54:11.959Z,1.67
2018-01-15T01:55:12.663Z,1.62
2018-01-15T01:56:13.384Z,1.67
2018-01-15T01:57:14.088Z,1.53
2018-01-15T01:58:14.793Z,1.60
2018-01-15T01:59:15.498Z,1.66
2018-01-15T02:00:16.201Z,1.62
2018-01-15T02:01:16.905Z,1.66
2018-01-15T02:02:17.607Z,1.55
2018-01-15T02:03:18.312Z,1.68
2018-01-15T02:04:19.015Z,1.63
2018-01-15T02:05:19.733Z,1.62
2018-01-15T02:06:20.437Z,1.62
2018-01-15T02:07:21.143Z,1.63
2018-01-15T02:08:21.849Z,1.56
2018-01-15T02:09:22.552Z,1.70
2018-01-15T02:10:23.258Z,1.60
2018-01-15T02:11:23.965Z,1.67
2018-01-15T02:12:24.681Z,1.68
2018-01-15T02:13:25.385Z,1.66
2018-01-15T02:14:26.091Z,1.67
2018-01-15T02:15:26.794Z,1.68
2018-01-15T02:16:27.498Z,1.59
2018-01-15T02:17:28.216Z,1.60
2018-01-15T02:18:28.939Z,1.63
2018-01-15T02:19:29.655Z,1.60
2018-01-15T02:20:30.360Z,1.56
2018-01-15T02:21:31.065Z,1.66
2018-01-15T02:22:31.786Z,1.68
2018-01-15T02:23:32.505Z,1.59
2018-01-15T02:24:33.213Z,1.68
2018-01-15T02:25:33.916Z,1.71
2018-01-15T02:26:34.622Z,1.67
2018-01-15T02:27:35.326Z,1.56
2018-01-15T02:28:36.046Z,1.63
2018-01-15T02:29:36.752Z,1.71
2018-01-15T02:30:37.459Z,1.70
2018-01-15T02:31:38.164Z,1.68
2018-01-15T02:32:38.868Z,1.85
2018-01-15T02:33:39.586Z,1.73
2018-01-15T02:34:40.289Z,1.71
2018-01-15T02:35:41.011Z,1.76
2018-01-15T02:36:41.718Z,1.77
2018-01-15T02:37:42.422Z,1.71
2018-01-15T02:38:43.142Z,1.76
2018-01-15T02:39:43.848Z,1.81
2018-01-15T02:40:44.578Z,1.81
2018-01-15T02:41:45.288Z,1.87
2018-01-15T02:42:45.996Z,1.80
2018-01-15T02:43:46.699Z,1.81
2018-01-15T02:44:47.420Z,1.92
2018-01-15T02:45:48.141Z,1.81
2018-01-15T02:46:48.846Z,1.95
2018-01-15T02:47:49.566Z,1.81
2018-01-15T02:48:50.270Z,1.94
2018-01-15T02:49:50.976Z,1.94
2018-01-15T02:50:51.682Z,1.94
2018-01-15T02:51:52.388Z,1.88
2018-01-15T02:52:53.096Z,1.94
2018-01-15T02:53:53.799Z,1.92
2018-01-15T02:54:54.518Z,1.84
2018-01-15T02:55:55.224Z,1.81
2018-01-15T02:56:55.928Z,1.89
2018-01-15T02:57:56.650Z,1.85
2018-01-15T02:58:57.369Z,1.84
2018-01-15T02:59:58.085Z,1.92
2018-01-15T03:00:58.791Z,1.91
2018-01-15T03:01:59.497Z,1.92
2018-01-15T03:03:00.204Z,1.84
2018-01-15T03:04:00.936Z,1.91
2018-01-15T03:05:01.629Z,2.00
2018-01-15T03:06:02.346Z,1.94
2018-01-15T03:07:03.051Z,1.94
2018-01-15T03:08:03.756Z,1.97
2018-01-15T03:09:04.465Z,1.94
2018-01-15T03:10:05.171Z,2.08
2018-01-15T03:11:05.876Z,1.91
2018-01-15T03:12:06.595Z,1.92
2018-01-15T03:13:07.300Z,2.06
2018-01-15T03:14:08.004Z,1.95
2018-01-15T03:15:08.723Z,2.06
2018-01-15T03:16:09.429Z,1.97
2018-01-15T03:17:10.136Z,2.04
2018-01-15T03:18:10.855Z,2.06
2018-01-15T03:19:11.573Z,2.04
2018-01-15T03:20:12.279Z,2.04
2018-01-15T03:21:12.986Z,2.10
2018-01-15T03:22:13.692Z,2.10
2018-01-15T03:23:14.400Z,2.15
2018-01-15T03:24:15.118Z,2.15
2018-01-15T03:25:15.823Z,2.08
2018-01-15T03:26:16.530Z,2.14
2018-01-15T03:27:17.235Z,2.11
2018-01-15T03:28:17.938Z,2.17
2018-01-15T03:29:18.642Z,2.11
2018-01-15T03:30:19.348Z,2.14
2018-01-15T03:31:20.052Z,2.15
2018-01-15T03:32:20.770Z,2.17
2018-01-15T03:33:21.474Z,2.18
2018-01-15T03:34:22.180Z,2.18
2018-01-15T03:35:22.885Z,2.22
2018-01-15T03:36:23.588Z,2.17
2018-01-15T03:37:24.294Z,2.24
2018-01-15T03:38:25.011Z,2.24
2018-01-15T03:39:25.731Z,2.22
2018-01-15T03:40:26.449Z,2.18
2018-01-15T03:41:27.155Z,2.20
2018-01-15T03:42:27.862Z,2.22
2018-01-15T03:43:28.566Z,2.20
2018-01-15T03:44:29.273Z,2.26
2018-01-15T03:45:29.994Z,2.18
2018-01-15T03:46:30.700Z,2.25
2018-01-15T03:47:31.406Z,2.18
2018-01-15T03:48:32.109Z,2.20
2018-01-15T03:49:32.814Z,2.18
2018-01-15T03:50:33.520Z,2.18
2018-01-15T03:51:34.224Z,2.22
2018-01-15T03:52:34.930Z,2.20
2018-01-15T03:53:35.637Z,2.17
2018-01-15T03:54:36.345Z,2.14
2018-01-15T03:55:37.053Z,2.15
2018-01-15T03:56:37.769Z,2.26
2018-01-15T03:57:38.476Z,2.29
2018-01-15T03:58:39.182Z,2.38
2018-01-15T03:59:39.890Z,2.29
2018-01-15T04:00:40.591Z,2.29
2018-01-15T04:01:41.311Z,2.32
2018-01-15T04:02:42.015Z,2.38
2018-01-15T04:03:42.736Z,2.33
2018-01-15T04:04:43.443Z,2.36
2018-01-15T04:05:44.162Z,2.38
2018-01-15T04:06:44.883Z,2.32
2018-01-15T04:07:45.591Z,2.38
2018-01-15T04:08:46.298Z,2.36
2018-01-15T04:09:47.002Z,2.47
2018-01-15T04:10:47.705Z,2.43
2018-01-15T04:11:48.426Z,2.47
2018-01-15T04:12:49.130Z,2.39
2018-01-15T04:13:49.835Z,2.57
2018-01-15T04:14:50.539Z,2.53
2018-01-15T04:15:51.244Z,2.50
2018-01-15T04:16:51.949Z,2.53
2018-01-15T04:17:52.655Z,2.57
2018-01-15T04:18:53.375Z,2.47
2018-01-15T04:19:54.095Z,2.43
2018-01-15T04:20:54.800Z,2.50
2018-01-15T04:21:55.506Z,2.49
2018-01-15T04:22:56.212Z,2.49
2018-01-15T04:23:56.933Z,2.50
2018-01-15T04:24:57.653Z,2.51
2018-01-15T04:25:58.374Z,2.57
2018-01-15T04:26:59.080Z,2.49
2018-01-15T04:27:59.787Z,2.53
2018-01-15T04:29:00.493Z,2.50
2018-01-15T04:30:01.211Z,2.43
2018-01-15T04:31:01.917Z,2.54
2018-01-15T04:32:02.683Z,2.49
2018-01-15T04:33:03.344Z,2.61
2018-01-15T04:34:04.049Z,2.42
2018-01-15T04:35:04.753Z,2.56
2018-01-15T04:36:05.465Z,2.50
2018-01-15T04:37:06.164Z,2.50
2018-01-15T04:38:06.870Z,2.49
2018-01-15T04:39:07.576Z,2.51
2018-01-15T04:40:08.294Z,2.62
2018-01-15T04:41:09.015Z,2.62
2018-01-15T04:42:09.734Z,2.53
2018-01-15T04:43:10.439Z,2.54
2018-01-15T04:44:11.145Z,2.60
2018-01-15T04:45:11.849Z,2.64
2018-01-15T04:46:12.554Z,2.54
2018-01-15T04:47:13.259Z,2.60
2018-01-15T04:48:13.963Z,2.61
2018-01-15T04:49:14.670Z,2.62
2018-01-15T04:50:15.376Z,2.68
2018-01-15T04:51:16.083Z,2.61
2018-01-15T04:52:16.788Z,2.67
2018-01-15T04:53:17.508Z,2.65
2018-01-15T04:54:18.226Z,2.64
2018-01-15T04:55:18.934Z,2.60
2018-01-15T04:56:19.641Z,2.65
2018-01-15T04:57:20.347Z,2.75
2018-01-15T04:58:21.054Z,2.64
2018-01-15T04:59:21.758Z,2.64
2018-01-15T05:00:22.465Z,2.75
2018-01-15T05:01:23.171Z,2.68
2018-01-15T05:02:23.875Z,2.74
2018-01-15T05:03:24.594Z,2.65
2018-01-15T05:04:25.300Z,2.62
2018-01-15T05:05:26.004Z,2.64
2018-01-15T05:06:26.709Z,2.69
2018-01-15T05:07:27.415Z,2.71
2018-01-15T05:08:28.123Z,2.69
2018-01-15T05:09:28.843Z,2.75
2018-01-15T05:10:29.550Z,2.75
2018-01-15T05:11:30.269Z,2.77
2018-01-15T05:12:30.975Z,2.71
2018-01-15T05:13:31.682Z,2.75
2018-01-15T05:14:32.388Z,2.83
2018-01-15T05:15:33.094Z,2.80
2018-01-15T05:16:33.800Z,2.71
2018-01-15T05:17:34.503Z,2.82
2018-01-15T05:18:35.222Z,2.87
2018-01-15T05:19:35.929Z,2.79
2018-01-15T05:20:36.649Z,2.83
2018-01-15T05:21:37.356Z,2.82
2018-01-15T05:22:38.063Z,2.89
2018-01-15T05:23:38.782Z,2.85
2018-01-15T05:24:39.489Z,2.86
2018-01-15T05:25:40.193Z,2.87
2018-01-15T05:26:40.898Z,2.87
2018-01-15T05:27:41.620Z,2.87
2018-01-15T05:28:42.326Z,2.97
2018-01-15T05:29:43.045Z,2.90
2018-01-15T05:30:43.752Z,2.89
2018-01-15T05:31:44.458Z,2.97
2018-01-15T05:32:45.166Z,2.89
2018-01-15T05:33:45.886Z,2.95
2018-01-15T05:34:46.606Z,2.95
2018-01-15T05:35:47.312Z,3.00
2018-01-15T05:36:48.017Z,2.87
2018-01-15T05:37:48.739Z,2.95
2018-01-15T05:38:49.446Z,3.04
2018-01-15T05:39:50.152Z,3.04
2018-01-15T05:40:50.858Z,3.03
2018-01-15T05:41:51.563Z,3.03
2018-01-15T05:42:52.270Z,3.07
2018-01-15T05:43:53.006Z,3.16
2018-01-15T05:44:53.710Z,3.10
2018-01-15T05:45:54.415Z,3.08
2018-01-15T05:46:55.135Z,3.08
2018-01-15T05:47:55.839Z,3.08
2018-01-15T05:48:56.545Z,3.10
2018-01-15T05:49:57.251Z,3.14
2018-01-15T05:50:57.959Z,3.10
2018-01-15T05:51:58.663Z,3.16
2018-01-15T05:52:59.370Z,3.18
2018-01-15T05:54:00.077Z,3.13
2018-01-15T05:55:00.783Z,3.26
2018-01-15T05:56:01.490Z,3.11
2018-01-15T05:57:02.195Z,3.28
2018-01-15T05:58:02.900Z,3.26
2018-01-15T05:59:03.606Z,3.29
2018-01-15T06:00:04.313Z,3.36
2018-01-15T06:01:05.035Z,3.32
2018-01-15T06:02:05.742Z,3.31
2018-01-15T06:03:06.450Z,3.32
2018-01-15T06:04:07.159Z,3.32
2018-01-15T06:05:07.870Z,3.40
2018-01-15T06:06:08.569Z,3.42
2018-01-15T06:07:09.278Z,3.41
2018-01-15T06:08:09.983Z,3.47
2018-01-15T06:09:10.705Z,3.47
2018-01-15T06:10:11.411Z,3.42
2018-01-15T06:11:12.118Z,3.41
2018-01-15T06:12:12.823Z,3.51
2018-01-15T06:13:13.533Z,3.40
2018-01-15T06:14:14.240Z,3.45
2018-01-15T06:15:14.945Z,3.47
2018-01-15T06:16:15.666Z,3.47
2018-01-15T06:17:16.371Z,3.53
2018-01-15T06:18:17.093Z,3.47
2018-01-15T06:19:17.813Z,3.47
2018-01-15T06:20:18.533Z,3.44
2018-01-15T06:21:19.243Z,3.58
2018-01-15T06:22:19.962Z,3.48
2018-01-15T06:23:20.672Z,3.45
2018-01-15T06:24:21.374Z,3.58
2018-01-15T06:25:22.080Z,3.62
2018-01-15T06:26:22.787Z,3.59
2018-01-15T06:27:23.509Z,3.55
2018-01-15T06:28:24.229Z,3.60
2018-01-15T06:29:24.936Z,3.60
2018-01-15T06:30:25.647Z,3.60
2018-01-15T06:31:26.348Z,3.65
2018-01-15T06:32:27.071Z,3.68
2018-01-15T06:33:27.792Z,3.65
2018-01-15T06:34:28.498Z,3.66
2018-01-15T06:35:29.205Z,3.69
2018-01-15T06:36:29.929Z,3.59
2018-01-15T06:37:30.649Z,3.69
2018-01-15T06:38:31.356Z,3.76
2018-01-15T06:39:32.064Z,3.80
2018-01-15T06:40:32.770Z,3.69
2018-01-15T06:41:33.474Z,3.70
2018-01-15T06:42:34.198Z,3.73
2018-01-15T06:43:34.904Z,3.83
2018-01-15T06:44:35.609Z,3.83
2018-01-15T06:45:36.316Z,3.76
2018-01-15T06:46:37.021Z,3.83
2018-01-15T06:47:37.729Z,3.70
2018-01-15T06:48:38.437Z,3.84
2018-01-15T06:49:39.145Z,3.86
2018-01-15T06:50:39.852Z,3.80
2018-01-15T06:51:40.560Z,3.84
2018-01-15T06:52:41.287Z,3.92
2018-01-15T06:53:41.992Z,3.91
2018-01-15T06:54:42.698Z,3.84
2018-01-15T06:55:43.405Z,3.74
2018-01-15T06:56:44.128Z,3.76
2018-01-15T06:57:44.836Z,3.84
2018-01-15T06:58:45.543Z,3.73
2018-01-15T06:59:46.264Z,3.86
2018-01-15T07:00:46.972Z,3.70
2018-01-15T07:01:47.676Z,3.84
2018-01-15T07:02:48.383Z,3.87
2018-01-15T07:03:49.106Z,3.91
2018-01-15T07:04:49.810Z,3.83
2018-01-15T07:05:50.531Z,3.91
2018-01-15T07:06:51.236Z,3.83
2018-01-15T07:07:51.942Z,3.88
2018-01-15T07:08:52.648Z,3.92
2018-01-15T07:09:53.356Z,3.96
2018-01-15T07:10:54.063Z,3.95
2018-01-15T07:11:54.774Z,3.86
2018-01-15T07:12:55.481Z,3.91
2018-01-15T07:13:56.192Z,3.96
2018-01-15T07:14:56.898Z,3.94
2018-01-15T07:15:57.605Z,3.92
2018-01-15T07:16:58.313Z,3.95
2018-01-15T07:17:59.032Z,3.94
2018-01-15T07:18:59.741Z,3.92
2018-01-15T07:20:00.450Z,3.84
2018-01-15T07:21:01.159Z,3.88
2018-01-15T07:22:01.867Z,3.92
2018-01-15T07:23:02.573Z,3.94
2018-01-15T07:24:03.296Z,3.92
2018-01-15T07:25:04.007Z,3.95
2018-01-15T07:26:04.716Z,3.95
2018-01-15T07:27:05.439Z,3.95
2018-01-15T07:28:06.147Z,3.88
2018-01-15T07:29:06.856Z,3.87
2018-01-15T07:30:07.564Z,3.98
2018-01-15T07:31:08.276Z,3.91
2018-01-15T07:32:08.987Z,3.95
2018-01-15T07:33:09.694Z,3.92
2018-01-15T07:34:10.417Z,3.96
2018-01-15T07:35:11.127Z,3.91
2018-01-15T07:36:11.852Z,3.87
2018-01-15T07:37:12.559Z,3.96
2018-01-15T07:38:13.268Z,3.91
2018-01-15T07:39:13.979Z,3.95
2018-01-15T07:40:14.689Z,4.02
2018-01-15T07:41:15.402Z,4.02
2018-01-15T07:42:16.111Z,4.04
2018-01-15T07:43:16.822Z,4.01
2018-01-15T07:44:17.532Z,4.12
2018-01-15T07:45:18.242Z,4.10
2018-01-15T07:46:18.951Z,4.10
2018-01-15T07:47:19.660Z,4.08
2018-01-15T07:48:20.372Z,4.10
2018-01-15T07:49:21.083Z,4.13
2018-01-15T07:50:21.793Z,4.12
2018-01-15T07:51:22.518Z,4.20
2018-01-15T07:52:23.230Z,4.19
2018-01-15T07:53:23.941Z,4.23
2018-01-15T07:54:24.665Z,4.20
2018-01-15T07:55:25.391Z,4.10
2018-01-15T07:56:26.100Z,4.12
2018-01-15T07:57:26.810Z,4.08
2018-01-15T07:58:27.520Z,4.17
2018-01-15T07:59:28.232Z,4.23
2018-01-15T08:00:28.958Z,4.20
2018-01-15T08:01:29.667Z,4.28
2018-01-15T08:02:30.391Z,4.26
2018-01-15T08:03:31.102Z,4.26
2018-01-15T08:04:31.813Z,4.20
2018-01-15T08:05:32.538Z,4.34
2018-01-15T08:06:33.262Z,4.34
2018-01-15T08:07:33.972Z,4.30
2018-01-15T08:08:34.681Z,4.31
2018-01-15T08:09:35.408Z,4.37
2018-01-15T08:10:36.120Z,4.38
2018-01-15T08:11:36.831Z,4.37
2018-01-15T08:12:37.543Z,4.42
2018-01-15T08:13:38.256Z,4.41
2018-01-15T08:14:38.984Z,4.41
2018-01-15T08:15:39.696Z,4.50
2018-01-15T08:16:40.406Z,4.50
2018-01-15T08:17:41.134Z,4.55
2018-01-15T08:18:41.846Z,4.55
2018-01-15T08:19:42.556Z,4.62
2018-01-15T08:20:43.268Z,4.60
2018-01-15T08:21:43.979Z,4.70
2018-01-15T08:22:44.690Z,4.71
2018-01-15T08:23:45.403Z,4.63
2018-01-15T08:24:46.116Z,4.67
2018-01-15T08:25:46.826Z,4.60
2018-01-15T08:26:47.539Z,4.68
2018-01-15T08:27:48.266Z,4.70
2018-01-15T08:28:48.976Z,4.75
2018-01-15T08:29:49.688Z,4.73
2018-01-15T08:30:50.400Z,4.80
2018-01-15T08:31:51.110Z,4.77
2018-01-15T08:32:51.856Z,4.75
2018-01-15T08:33:52.549Z,4.82
2018-01-15T08:34:53.261Z,4.78
2018-01-15T08:35:53.972Z,4.89
2018-01-15T08:36:54.682Z,4.96
2018-01-15T08:37:55.396Z,4.99
2018-01-15T08:38:56.111Z,4.97
2018-01-15T08:39:56.836Z,4.97
2018-01-15T08:40:57.550Z,5.02
2018-01-15T08:41:58.262Z,4.97
2018-01-15T08:42:58.973Z,5.02
2018-01-15T08:43:59.698Z,5.04
2018-01-15T08:45:00.410Z,5.00
2018-01-15T08:46:01.157Z,5.08
2018-01-15T08:47:01.834Z,4.96
2018-01-15T08:48:02.559Z,4.96
2018-01-15T08:49:03.273Z,5.08
2018-01-15T08:50:03.984Z,5.04
2018-01-15T08:51:04.695Z,5.04
2018-01-15T08:52:05.406Z,5.05
2018-01-15T08:53:06.118Z,5.17
2018-01-15T08:54:06.829Z,5.05
2018-01-15T08:55:07.542Z,5.11
2018-01-15T08:56:08.253Z,5.10
2018-01-15T08:57:08.964Z,5.08
2018-01-15T08:58:09.676Z,5.17
2018-01-15T08:59:10.387Z,5.21
2018-01-15T09:00:11.098Z,5.21
2018-01-15T09:01:11.824Z,5.23
2018-01-15T09:02:12.522Z,5.23
2018-01-15T09:03:13.233Z,5.20
2018-01-15T09:04:13.992Z,5.25
2018-01-15T09:05:14.675Z,5.23
2018-01-15T09:06:15.386Z,5.25
2018-01-15T09:07:16.111Z,5.29
2018-01-15T09:08:16.839Z,5.35
2018-01-15T09:09:17.552Z,5.29
2018-01-15T09:10:18.262Z,5.30
2018-01-15T09:11:18.972Z,5.29
2018-01-15T09:12:19.684Z,5.35
2018-01-15T09:13:20.398Z,5.39
2018-01-15T09:14:21.111Z,5.36
2018-01-15T09:15:21.821Z,5.36
2018-01-15T09:16:22.534Z,5.32
2018-01-15T09:17:23.291Z,5.36
2018-01-15T09:18:23.974Z,5.41
2018-01-15T09:19:24.684Z,5.29
2018-01-15T09:20:25.408Z,5.38
2018-01-15T09:21:26.136Z,5.38
2018-01-15T09:22:26.848Z,5.43
2018-01-15T09:23:27.559Z,5.41
2018-01-15T09:24:28.270Z,5.39
2018-01-15T09:25:28.984Z,5.44
2018-01-15T09:26:29.695Z,5.38
2018-01-15T09:27:30.408Z,5.47
2018-01-15T09:28:31.122Z,5.53
2018-01-15T09:29:31.833Z,5.47
2018-01-15T09:30:32.548Z,5.50
2018-01-15T09:31:33.276Z,5.48
2018-01-15T09:32:33.991Z,5.48
2018-01-15T09:33:34.704Z,5.53
2018-01-15T09:34:35.420Z,5.48
2018-01-15T09:35:36.147Z,5.56
2018-01-15T09:36:36.860Z,5.54
2018-01-15T09:37:37.575Z,5.59
2018-01-15T09:38:38.292Z,5.53
2018-01-15T09:39:39.007Z,5.62
2018-01-15T09:40:39.734Z,5.69
2018-01-15T09:41:40.447Z,5.61
2018-01-15T09:42:41.160Z,5.66
2018-01-15T09:43:41.873Z,5.71
2018-01-15T09:44:42.585Z,5.64
2018-01-15T09:45:43.313Z,5.71
2018-01-15T09:46:44.027Z,5.68
2018-01-15T09:47:44.742Z,5.69
2018-01-15T09:48:45.473Z,5.66
2018-01-15T09:49:46.187Z,5.76
2018-01-15T09:50:46.916Z,5.73
2018-01-15T09:51:47.632Z,5.71
2018-01-15T09:52:48.359Z,5.76
2018-01-15T09:53:49.073Z,5.73
2018-01-15T09:54:49.787Z,5.76
2018-01-15T09:55:50.516Z,5.80
2018-01-15T09:56:51.229Z,5.79
2018-01-15T09:57:51.945Z,5.73
2018-01-15T09:58:52.673Z,5.79
2018-01-15T09:59:53.393Z,5.89
2018-01-15T10:00:54.103Z,5.83
2018-01-15T10:01:54.820Z,5.86
2018-01-15T10:02:55.530Z,5.86
2018-01-15T10:03:56.244Z,5.97
2018-01-15T10:04:56.959Z,5.99
2018-01-15T10:05:57.675Z,5.94
2018-01-15T10:06:58.389Z,5.94
2018-01-15T10:07:59.103Z,5.91
2018-01-15T10:08:59.815Z,5.98
2018-01-15T10:10:00.530Z,6.02
2018-01-15T10:11:01.260Z,6.04
2018-01-15T10:12:01.986Z,6.08
2018-01-15T10:13:02.715Z,6.02
2018-01-15T10:14:03.417Z,6.14
2018-01-15T10:15:04.132Z,6.22
2018-01-15T10:16:04.863Z,6.22
2018-01-15T10:17:05.578Z,6.20
2018-01-15T10:18:06.290Z,6.24
2018-01-15T10:19:07.005Z,6.19
2018-01-15T10:20:07.719Z,6.16
2018-01-15T10:21:08.433Z,6.28
2018-01-15T10:22:09.149Z,6.30
2018-01-15T10:23:09.863Z,6.38
2018-01-15T10:24:10.578Z,6.39
2018-01-15T10:25:11.291Z,6.35
2018-01-15T10:26:12.005Z,6.38
2018-01-15T10:27:12.744Z,6.39
2018-01-15T10:28:13.433Z,6.44
2018-01-15T10:29:14.148Z,6.38
2018-01-15T10:30:14.860Z,6.45
2018-01-15T10:31:15.574Z,6.39
2018-01-15T10:32:16.286Z,6.42
2018-01-15T10:33:17.001Z,6.42
2018-01-15T10:34:17.714Z,6.48
2018-01-15T10:35:18.440Z,6.39
2018-01-15T10:36:19.144Z,6.39
2018-01-15T10:37:19.857Z,6.46
2018-01-15T10:38:20.573Z,6.44
2018-01-15T10:39:21.285Z,6.57
2018-01-15T10:40:21.999Z,6.49
2018-01-15T10:41:22.713Z,6.56
2018-01-15T10:42:23.426Z,6.59
2018-01-15T10:43:24.153Z,6.56
2018-01-15T10:44:24.867Z,6.56
2018-01-15T10:45:25.584Z,6.54
2018-01-15T10:46:26.295Z,6.52
2018-01-15T10:47:27.009Z,6.66
2018-01-15T10:48:27.722Z,6.63
2018-01-15T10:49:28.449Z,6.54
2018-01-15T10:50:29.163Z,6.63
2018-01-15T10:51:29.879Z,6.59
2018-01-15T10:52:30.589Z,6.69
2018-01-15T10:53:31.302Z,6.67
2018-01-15T10:54:32.014Z,6.72
2018-01-15T10:55:32.743Z,6.69
2018-01-15T10:56:33.454Z,6.77
2018-01-15T10:57:34.169Z,6.70
2018-01-15T10:58:34.881Z,6.66
2018-01-15T10:59:35.594Z,6.74
2018-01-15T11:00:36.310Z,6.72
2018-01-15T11:01:37.023Z,6.70
2018-01-15T11:02:37.735Z,6.78
2018-01-15T11:03:38.449Z,6.70
2018-01-15T11:04:39.161Z,6.78
2018-01-15T11:05:39.873Z,6.78
2018-01-15T11:06:40.588Z,6.74
2018-01-15T11:07:41.301Z,6.82
2018-01-15T11:08:42.030Z,6.84
2018-01-15T11:09:42.741Z,6.81
2018-01-15T11:10:43.454Z,6.87
2018-01-15T11:11:44.172Z,6.87
2018-01-15T11:12:44.881Z,6.92
2018-01-15T11:13:45.609Z,6.87
2018-01-15T11:14:46.323Z,6.84
2018-01-15T11:15:47.038Z,6.99
2018-01-15T11:16:47.761Z,6.93
2018-01-15T11:17:48.479Z,6.96
2018-01-15T11:18:49.204Z,6.99
2018-01-15T11:19:49.907Z,7.00
2018-01-15T11:20:50.620Z,7.06
2018-01-15T11:21:51.353Z,7.14
2018-01-15T11:22:52.064Z,6.99
2018-01-15T11:23:52.778Z,7.11
2018-01-15T11:24:53.497Z,7.11
2018-01-15T11:25:54.211Z,7.10
2018-01-15T11:26:54.920Z,7.18
2018-01-15T11:27:55.635Z,7.18
2018-01-15T11:28:56.351Z,7.18
2018-01-15T11:29:57.075Z,7.28
2018-01-15T11:30:57.790Z,7.28
2018-01-15T11:31:58.517Z,7.23
2018-01-15T11:32:59.233Z,7.25
2018-01-15T11:33:59.945Z,7.20
2018-01-15T11:35:00.661Z,7.23
2018-01-15T11:36:01.375Z,7.28
2018-01-15T11:37:02.100Z,7.25
2018-01-15T11:38:02.829Z,7.32
2018-01-15T11:39:03.557Z,7.32
2018-01-15T11:40:04.270Z,7.33
2018-01-15T11:41:04.981Z,7.35
2018-01-15T11:42:05.696Z,7.31
2018-01-15T11:43:06.408Z,7.33
2018-01-15T11:44:07.119Z,7.39
2018-01-15T11:45:07.831Z,7.33
2018-01-15T11:46:08.541Z,7.38
2018-01-15T11:47:09.255Z,7.33
2018-01-15T11:48:09.966Z,7.33
2018-01-15T11:49:10.677Z,7.35
2018-01-15T11:50:11.404Z,7.39
2018-01-15T11:51:12.116Z,7.43
2018-01-15T11:52:12.828Z,7.40
2018-01-15T11:53:13.556Z,7.38
2018-01-15T11:54:14.283Z,7.38
2018-01-15T11:55:14.997Z,7.40
2018-01-15T11:56:15.718Z,7.39
2018-01-15T11:57:16.443Z,7.43
2018-01-15T11:58:17.155Z,7.38
2018-01-15T11:59:17.866Z,7.39
2018-01-15T12:00:18.579Z,7.47
2018-01-15T12:01:19.292Z,7.51
2018-01-15T12:02:20.018Z,7.50
2018-01-15T12:03:20.730Z,7.54
2018-01-15T12:04:21.442Z,7.53
2018-01-15T12:05:22.154Z,7.50
2018-01-15T12:06:22.882Z,7.66
2018-01-15T12:07:23.609Z,7.54
2018-01-15T12:08:24.325Z,7.56
2018-01-15T12:09:25.032Z,7.54
2018-01-15T12:10:25.745Z,7.51
2018-01-15T12:11:26.456Z,7.54
2018-01-15T12:12:27.221Z,7.56
2018-01-15T12:13:27.908Z,7.63
2018-01-15T12:14:28.606Z,7.54
2018-01-15T12:15:29.318Z,7.58
2018-01-15T12:16:30.031Z,7.69
2018-01-15T12:17:30.758Z,7.51
2018-01-15T12:18:31.469Z,7.50
2018-01-15T12:19:32.187Z,7.53
2018-01-15T12:20:32.890Z,7.54
2018-01-15T12:21:33.611Z,7.50
2018-01-15T12:22:34.324Z,7.56
2018-01-15T12:23:35.050Z,7.54
2018-01-15T12:24:35.773Z,7.53
2018-01-15T12:25:36.484Z,7.54
2018-01-15T12:26:37.194Z,7.53
2018-01-15T12:27:37.920Z,7.67
2018-01-15T12:28:38.631Z,7.50
2018-01-15T12:29:39.342Z,7.54
2018-01-15T12:30:40.069Z,7.51
2018-01-15T12:31:40.780Z,7.63
2018-01-15T12:32:41.489Z,7.54
2018-01-15T12:33:42.214Z,7.63
2018-01-15T12:34:42.925Z,7.53
2018-01-15T12:35:43.638Z,7.54
2018-01-15T12:36:44.352Z,7.60
2018-01-15T12:37:45.061Z,7.51
2018-01-15T12:38:45.770Z,7.61
2018-01-15T12:39:46.494Z,7.66
2018-01-15T12:40:47.204Z,7.67
2018-01-15T12:41:47.917Z,7.51
2018-01-15T12:42:48.644Z,7.57
2018-01-15T12:43:49.354Z,7.63
2018-01-15T12:44:50.064Z,7.57
2018-01-15T12:45:50.776Z,7.70
2018-01-15T12:46:51.490Z,7.66
2018-01-15T12:47:52.204Z,7.63
2018-01-15T12:48:52.915Z,7.60
2018-01-15T12:49:53.625Z,7.69
2018-01-15T12:50:54.335Z,7.73
2018-01-15T12:51:55.061Z,7.73
2018-01-15T12:52:55.772Z,7.70
2018-01-15T12:53:56.484Z,7.66
2018-01-15T12:54:57.194Z,7.73
2018-01-15T12:55:57.905Z,7.79
2018-01-15T12:56:58.616Z,7.70
2018-01-15T12:57:59.326Z,7.73
2018-01-15T12:59:00.055Z,7.70
2018-01-15T13:00:00.778Z,7.72
2018-01-15T13:01:01.487Z,7.76
2018-01-15T13:02:02.214Z,7.70
2018-01-15T13:03:02.925Z,7.79
2018-01-15T13:04:03.651Z,7.79
2018-01-15T13:05:04.361Z,7.77
2018-01-15T13:06:05.074Z,7.73
2018-01-15T13:07:05.784Z,7.72
2018-01-15T13:08:06.495Z,7.66
2018-01-15T13:09:07.204Z,7.79
2018-01-15T13:10:07.913Z,7.76
2018-01-15T13:11:08.624Z,7.72
2018-01-15T13:12:09.335Z,7.67
2018-01-15T13:13:10.048Z,7.82
2018-01-15T13:14:10.773Z,7.85
2018-01-15T13:15:11.483Z,7.76
2018-01-15T13:16:12.207Z,7.67
2018-01-15T13:17:12.916Z,7.69
2018-01-15T13:18:13.627Z,7.70
2018-01-15T13:19:14.338Z,7.77
2018-01-15T13:20:15.047Z,7.69
2018-01-15T13:21:15.758Z,7.73
2018-01-15T13:22:16.469Z,7.73
2018-01-15T13:23:17.180Z,7.69
2018-01-15T13:24:17.891Z,7.75
2018-01-15T13:25:18.601Z,7.76
2018-01-15T13:26:19.310Z,7.72
2018-01-15T13:27:20.018Z,7.72
2018-01-15T13:28:20.730Z,7.72